createdAt,value
2018-03-27T00:01:02.609Z,6.30
2018-03-27T00:03:30.174Z,6.30
2018-03-27T00:05:57.752Z,6.40
2018-03-27T00:08:25.294Z,6.40
2018-03-27T00:10:52.856Z,6.30
2018-03-27T00:13:20.383Z,6.30
2018-03-27T00:15:49.728Z,6.30
2018-03-27T00:18:17.455Z,6.30
2018-03-27T00:20:45.018Z,6.30
2018-03-27T00:23:12.572Z,6.30
2018-03-27T00:25:40.128Z,6.30
2018-03-27T00:28:19.414Z,6.20
2018-03-27T00:30:58.761Z,6.20
2018-03-27T00:33:38.840Z,6.20
2018-03-27T00:36:18.134Z,6.20
2018-03-27T00:38:57.536Z,6.30
2018-03-27T00:44:34.115Z,6.20
2018-03-27T00:47:01.695Z,6.20
2018-03-27T00:49:29.235Z,6.20
2018-03-27T00:51:56.796Z,6.20
2018-03-27T00:54:24.328Z,6.30
2018-03-27T00:56:52.796Z,6.30
2018-03-27T00:59:21.098Z,6.30
2018-03-27T01:01:48.657Z,6.30
2018-03-27T01:04:16.187Z,6.30
2018-03-27T01:06:44.529Z,6.30
2018-03-27T01:09:12.065Z,6.20
2018-03-27T01:11:39.626Z,6.30
2018-03-27T01:14:07.174Z,6.30
2018-03-27T01:16:34.722Z,6.20
2018-03-27T01:19:02.296Z,6.20
2018-03-27T01:21:29.821Z,6.20
2018-03-27T01:23:58.196Z,6.20
2018-03-27T01:26:25.733Z,6.20
2018-03-27T01:28:53.309Z,6.20
2018-03-27T01:31:20.857Z,6.20
2018-03-27T01:33:48.501Z,6.20
2018-03-27T01:36:16.180Z,6.10
2018-03-27T01:38:43.757Z,6.10
2018-03-27T01:41:11.320Z,6.10
2018-03-27T01:43:39.663Z,6.00
2018-03-27T01:46:07.205Z,6.00
2018-03-27T01:48:34.765Z,5.90
2018-03-27T01:51:02.312Z,5.90
2018-03-27T01:53:30.040Z,5.90
2018-03-27T01:55:58.355Z,5.80
2018-03-27T01:58:27.168Z,5.80
2018-03-27T02:00:54.703Z,5.80
2018-03-27T02:03:22.280Z,5.70
2018-03-27T02:05:49.812Z,5.70
2018-03-27T02:08:23.139Z,5.70
2018-03-27T02:10:50.204Z,5.70
2018-03-27T02:13:23.428Z,5.70
2018-03-27T02:15:57.590Z,5.80
2018-03-27T02:18:30.683Z,5.70
2018-03-27T02:21:03.804Z,5.80
2018-03-27T02:23:33.504Z,5.80
2018-03-27T02:26:01.086Z,5.80
2018-03-27T02:28:28.631Z,5.80
2018-03-27T02:30:56.187Z,5.80
2018-03-27T02:33:23.763Z,5.70
2018-03-27T02:35:52.295Z,5.70
2018-03-27T02:38:19.836Z,5.70
2018-03-27T02:40:47.429Z,5.70
2018-03-27T02:43:15.367Z,5.70
2018-03-27T02:45:42.913Z,5.70
2018-03-27T02:48:10.455Z,5.60
2018-03-27T02:50:38.020Z,5.60
2018-03-27T02:53:05.565Z,5.60
2018-03-27T02:55:33.171Z,5.60
2018-03-27T02:58:00.714Z,5.60
2018-03-27T03:00:28.397Z,5.50
2018-03-27T03:02:55.938Z,5.60
2018-03-27T03:05:23.486Z,5.50
2018-03-27T03:07:51.062Z,5.50
2018-03-27T03:10:18.625Z,5.50
2018-03-27T03:12:46.292Z,5.50
2018-03-27T03:15:13.832Z,5.50
2018-03-27T03:17:42.620Z,5.50
2018-03-27T03:20:10.160Z,5.50
2018-03-27T03:22:38.530Z,5.50
2018-03-27T03:25:06.069Z,5.50
2018-03-27T03:27:33.665Z,5.40
2018-03-27T03:30:01.220Z,5.50
2018-03-27T03:32:29.544Z,5.40
2018-03-27T03:34:57.093Z,5.40
2018-03-27T03:37:24.645Z,5.40
2018-03-27T03:39:52.182Z,5.40
2018-03-27T03:42:19.755Z,5.40
2018-03-27T03:44:47.294Z,5.40
2018-03-27T03:47:14.909Z,5.30
2018-03-27T03:49:42.444Z,5.30
2018-03-27T03:52:10.012Z,5.30
2018-03-27T03:54:37.626Z,5.30
2018-03-27T03:57:09.336Z,5.20
2018-03-27T03:59:36.858Z,5.10
2018-03-27T04:02:04.392Z,5.20
2018-03-27T04:04:31.994Z,5.20
2018-03-27T04:06:59.530Z,5.10
2018-03-27T04:09:27.230Z,5.10
2018-03-27T04:11:54.767Z,5.10
2018-03-27T04:14:22.325Z,5.10
2018-03-27T04:16:49.874Z,5.10
2018-03-27T04:19:17.431Z,5.10
2018-03-27T04:21:44.992Z,5.00
2018-03-27T04:24:12.574Z,5.00
2018-03-27T04:26:40.110Z,5.00
2018-03-27T04:29:07.669Z,5.00
2018-03-27T04:31:35.208Z,5.00
2018-03-27T04:34:03.541Z,5.00
2018-03-27T04:36:31.084Z,5.00
2018-03-27T04:38:58.644Z,5.00
2018-03-27T04:41:26.198Z,5.00
2018-03-27T04:43:53.775Z,5.10
2018-03-27T04:46:21.371Z,5.10
2018-03-27T04:48:48.941Z,5.10
2018-03-27T04:51:16.506Z,5.10
2018-03-27T04:53:45.094Z,5.10
2018-03-27T04:56:12.966Z,5.10
2018-03-27T04:58:40.509Z,5.10
2018-03-27T05:01:08.868Z,5.20
2018-03-27T05:03:36.398Z,5.20
2018-03-27T05:06:04.149Z,5.20
2018-03-27T05:08:31.681Z,5.20
2018-03-27T05:10:59.241Z,5.20
2018-03-27T05:13:27.551Z,5.20
2018-03-27T05:15:55.105Z,5.10
2018-03-27T05:18:22.663Z,5.10
2018-03-27T05:20:50.229Z,5.10
2018-03-27T05:23:17.775Z,5.00
2018-03-27T05:25:45.525Z,5.10
2018-03-27T05:28:13.062Z,5.10
2018-03-27T05:30:40.646Z,5.20
2018-03-27T05:33:08.175Z,5.10
2018-03-27T05:35:35.822Z,5.10
2018-03-27T05:38:03.358Z,5.10
2018-03-27T05:40:31.125Z,5.10
2018-03-27T05:42:58.670Z,5.10
2018-03-27T05:45:26.244Z,5.10
2018-03-27T05:47:53.785Z,5.20
2018-03-27T05:50:21.573Z,5.20
2018-03-27T05:52:49.113Z,5.20
2018-03-27T05:55:16.653Z,5.30
2018-03-27T05:57:44.215Z,5.40
2018-03-27T06:00:11.755Z,5.50
2018-03-27T06:02:39.362Z,5.50
2018-03-27T06:05:06.913Z,5.50
2018-03-27T06:07:34.501Z,5.60
2018-03-27T06:10:02.063Z,5.70
2018-03-27T06:12:29.640Z,5.70
2018-03-27T06:14:57.172Z,5.70
2018-03-27T06:17:24.731Z,5.70
2018-03-27T06:19:52.269Z,5.70
2018-03-27T06:22:19.835Z,5.70
2018-03-27T06:24:47.348Z,5.80
2018-03-27T06:27:14.918Z,5.90
2018-03-27T06:29:43.378Z,6.00
2018-03-27T06:32:10.952Z,6.00
2018-03-27T06:34:38.508Z,6.10
2018-03-27T06:37:07.153Z,6.20
2018-03-27T06:39:34.695Z,6.20
2018-03-27T06:42:02.231Z,6.20
2018-03-27T06:44:29.802Z,6.20
2018-03-27T06:46:57.340Z,6.20
2018-03-27T06:49:24.891Z,6.20
2018-03-27T06:51:53.364Z,6.30
2018-03-27T06:54:21.748Z,6.30
2018-03-27T06:56:49.280Z,6.30
2018-03-27T06:59:16.848Z,6.30
2018-03-27T07:01:44.399Z,6.30
2018-03-27T07:04:11.962Z,6.40
2018-03-27T07:06:39.509Z,6.40
2018-03-27T07:09:07.072Z,6.40
2018-03-27T07:11:34.632Z,6.40
2018-03-27T07:14:02.237Z,6.40
2018-03-27T07:16:29.773Z,6.30
2018-03-27T07:18:58.298Z,6.20
2018-03-27T07:21:26.582Z,6.20
2018-03-27T07:23:54.167Z,6.20
2018-03-27T07:26:21.709Z,6.20
2018-03-27T07:28:49.284Z,6.30
2018-03-27T07:31:17.596Z,6.40
2018-03-27T07:33:46.253Z,6.40
2018-03-27T07:36:13.960Z,6.40
2018-03-27T07:38:41.734Z,6.40
2018-03-27T07:41:09.293Z,6.40
2018-03-27T07:43:36.830Z,6.40
2018-03-27T07:46:04.470Z,6.40
2018-03-27T07:48:32.115Z,6.50
2018-03-27T07:50:59.745Z,6.60
2018-03-27T07:53:27.326Z,6.70
2018-03-27T07:55:54.889Z,6.70
2018-03-27T07:58:22.422Z,6.70
2018-03-27T08:00:50.083Z,6.70
2018-03-27T08:03:17.753Z,6.70
2018-03-27T08:05:45.339Z,6.70
2018-03-27T08:08:12.897Z,6.90
2018-03-27T08:10:40.552Z,7.00
2018-03-27T08:13:08.101Z,7.10
2018-03-27T08:15:35.693Z,7.20
2018-03-27T08:18:03.235Z,7.20
2018-03-27T08:20:30.796Z,7.30
2018-03-27T08:22:58.356Z,7.30
2018-03-27T08:25:26.005Z,7.40
2018-03-27T08:27:53.548Z,7.30
2018-03-27T08:30:21.207Z,7.30
2018-03-27T08:32:48.778Z,7.20
2018-03-27T08:35:16.324Z,7.30
2018-03-27T08:37:43.905Z,7.30
2018-03-27T08:40:11.463Z,7.30
2018-03-27T08:42:39.035Z,7.30
2018-03-27T08:45:06.569Z,7.60
2018-03-27T08:47:34.132Z,8.10
2018-03-27T08:50:01.693Z,8.00
2018-03-27T08:52:29.257Z,7.80
2018-03-27T08:54:56.805Z,7.60
2018-03-27T08:57:24.372Z,7.60
2018-03-27T08:59:51.933Z,7.60
2018-03-27T09:02:19.783Z,7.70
2018-03-27T09:04:47.330Z,7.80
2018-03-27T09:07:14.895Z,8.50
2018-03-27T09:09:42.450Z,8.60
2018-03-27T09:12:10.074Z,8.60
2018-03-27T09:14:38.395Z,8.40
2018-03-27T09:17:06.163Z,8.40
2018-03-27T09:19:33.870Z,8.30
2018-03-27T09:22:01.421Z,8.70
2018-03-27T09:24:29.755Z,9.20
2018-03-27T09:26:57.303Z,9.20
2018-03-27T09:29:24.894Z,9.10
2018-03-27T09:31:52.465Z,8.90
2018-03-27T09:34:20.219Z,8.80
2018-03-27T09:36:47.766Z,8.80
2018-03-27T09:39:15.342Z,9.20
2018-03-27T09:41:42.873Z,9.40
2018-03-27T09:44:10.433Z,9.30
2018-03-27T09:46:38.224Z,9.30
2018-03-27T09:49:05.825Z,9.40
2018-03-27T09:51:34.160Z,9.70
2018-03-27T09:54:01.763Z,9.70
2018-03-27T09:56:30.074Z,9.20
2018-03-27T09:58:57.710Z,9.10
2018-03-27T10:01:28.032Z,9.30
2018-03-27T10:03:55.610Z,9.80
2018-03-27T10:06:23.165Z,10.10
2018-03-27T10:08:50.921Z,10.40
2018-03-27T10:11:18.540Z,10.50
2018-03-27T10:13:46.168Z,10.70
2018-03-27T10:16:14.420Z,10.40
2018-03-27T10:18:41.984Z,10.70
2018-03-27T10:21:09.556Z,11.00
2018-03-27T10:23:37.153Z,11.30
2018-03-27T10:26:04.734Z,11.40
2018-03-27T10:28:33.091Z,10.50
2018-03-27T10:31:00.682Z,10.50
2018-03-27T10:33:29.312Z,10.00
2018-03-27T10:35:56.889Z,9.90
2018-03-27T10:38:24.635Z,9.70
2018-03-27T10:40:52.257Z,10.00
2018-03-27T10:43:19.810Z,10.40
2018-03-27T10:45:47.648Z,10.70
2018-03-27T10:48:15.201Z,11.00
2018-03-27T10:50:42.771Z,11.00
2018-03-27T10:53:10.332Z,10.60
2018-03-27T10:55:37.940Z,10.80
2018-03-27T10:58:05.481Z,10.90
2018-03-27T11:00:33.122Z,11.20
2018-03-27T11:03:00.675Z,11.40
2018-03-27T11:05:28.221Z,11.50
2018-03-27T11:07:55.799Z,11.30
2018-03-27T11:10:23.345Z,10.90
2018-03-27T11:12:50.948Z,10.90
2018-03-27T11:15:19.257Z,10.50
2018-03-27T11:17:47.232Z,10.50
2018-03-27T11:20:14.975Z,10.40
2018-03-27T11:22:42.554Z,10.40
2018-03-27T11:25:10.120Z,10.70
2018-03-27T11:27:37.729Z,10.60
2018-03-27T11:30:06.213Z,10.20
2018-03-27T11:32:34.721Z,9.80
2018-03-27T11:35:02.259Z,9.80
2018-03-27T11:37:29.825Z,9.60
2018-03-27T11:39:58.143Z,9.50
2018-03-27T11:42:25.708Z,9.50
2018-03-27T11:44:53.251Z,9.60
2018-03-27T11:47:20.865Z,9.60
2018-03-27T11:49:48.366Z,9.70
2018-03-27T11:52:16.218Z,9.70
2018-03-27T11:54:43.762Z,9.70
2018-03-27T11:57:11.674Z,9.70
2018-03-27T11:59:39.224Z,9.70
2018-03-27T12:02:06.794Z,9.70
2018-03-27T12:04:34.372Z,9.70
2018-03-27T12:07:01.920Z,9.70
2018-03-27T12:09:29.718Z,9.80
2018-03-27T12:11:57.294Z,9.70
2018-03-27T12:14:25.661Z,9.60
2018-03-27T12:16:53.260Z,9.60
2018-03-27T12:19:20.844Z,9.50
2018-03-27T12:21:48.453Z,9.50
2018-03-27T12:24:16.239Z,9.50
2018-03-27T12:26:43.810Z,9.40
2018-03-27T12:29:11.684Z,9.30
2018-03-27T12:31:39.239Z,9.20
2018-03-27T12:34:06.830Z,9.30
2018-03-27T12:36:34.373Z,9.30
2018-03-27T12:39:01.970Z,9.30
2018-03-27T12:41:30.322Z,9.40
2018-03-27T12:43:57.897Z,9.40
2018-03-27T12:46:25.453Z,9.50
2018-03-27T12:48:53.031Z,9.50
2018-03-27T12:51:21.453Z,9.40
2018-03-27T12:53:49.094Z,9.40
2018-03-27T12:56:16.676Z,9.40
2018-03-27T12:58:44.271Z,9.40
2018-03-27T13:01:11.814Z,9.30
2018-03-27T13:03:39.366Z,9.30
2018-03-27T13:06:06.974Z,9.20
2018-03-27T13:08:34.546Z,9.10
2018-03-27T13:11:02.197Z,9.10
2018-03-27T13:13:30.564Z,9.10
2018-03-27T13:15:58.185Z,9.00
2018-03-27T13:18:25.728Z,9.00
2018-03-27T13:20:53.478Z,9.00
2018-03-27T13:23:21.048Z,9.10
2018-03-27T13:25:48.649Z,9.20
2018-03-27T13:28:16.257Z,9.20
2018-03-27T13:30:43.793Z,9.30
2018-03-27T13:33:11.554Z,10.00
2018-03-27T13:35:39.910Z,10.70
2018-03-27T13:38:07.480Z,10.70
2018-03-27T13:40:35.297Z,10.90
2018-03-27T13:43:02.847Z,11.30
2018-03-27T13:45:30.420Z,11.20
2018-03-27T13:47:58.025Z,11.20
2018-03-27T13:50:25.585Z,11.40
2018-03-27T13:52:54.134Z,11.80
2018-03-27T13:55:21.843Z,11.80
2018-03-27T13:57:49.410Z,11.90
2018-03-27T14:00:17.745Z,12.20
2018-03-27T14:02:45.333Z,12.20
2018-03-27T14:05:12.903Z,12.50
2018-03-27T14:07:40.504Z,12.40
2018-03-27T14:10:08.081Z,12.60
2018-03-27T14:12:35.661Z,12.90
2018-03-27T14:15:03.261Z,13.10
2018-03-27T14:17:30.825Z,13.00
2018-03-27T14:19:58.379Z,13.30
2018-03-27T14:22:25.955Z,13.60
2018-03-27T14:24:53.508Z,13.70
2018-03-27T14:27:21.205Z,14.20
2018-03-27T14:29:48.770Z,14.40
2018-03-27T14:32:16.524Z,14.80
2018-03-27T14:34:44.082Z,15.20
2018-03-27T14:37:11.670Z,15.40
2018-03-27T14:39:39.213Z,15.30
2018-03-27T14:42:06.802Z,15.40
2018-03-27T14:44:34.414Z,15.50
2018-03-27T14:47:02.000Z,15.40
2018-03-27T14:49:29.582Z,14.90
2018-03-27T14:51:57.128Z,14.70
2018-03-27T14:54:24.712Z,14.30
2018-03-27T14:56:52.267Z,14.10
2018-03-27T14:59:20.605Z,13.50
2018-03-27T15:01:48.163Z,13.40
2018-03-27T15:04:15.876Z,13.10
2018-03-27T15:06:44.309Z,12.50
2018-03-27T15:09:11.893Z,12.50
2018-03-27T15:11:39.426Z,12.20
2018-03-27T15:14:07.015Z,12.00
2018-03-27T15:16:34.552Z,11.80
2018-03-27T15:19:02.125Z,12.30
2018-03-27T15:21:29.681Z,12.80
2018-03-27T15:23:57.385Z,12.60
2018-03-27T15:26:24.925Z,12.60
2018-03-27T15:28:52.507Z,12.20
2018-03-27T15:31:20.088Z,12.00
2018-03-27T15:33:47.688Z,12.10
2018-03-27T15:36:15.244Z,11.80
2018-03-27T15:38:43.796Z,11.80
2018-03-27T15:41:11.755Z,11.60
2018-03-27T15:43:39.497Z,11.30
2018-03-27T15:46:07.379Z,11.10
2018-03-27T15:48:35.168Z,10.90
2018-03-27T15:51:02.769Z,10.70
2018-03-27T15:53:30.448Z,10.50
2018-03-27T15:55:58.106Z,10.40
2018-03-27T16:01:01.555Z,10.10
2018-03-27T16:03:29.110Z,10.10
2018-03-27T16:05:56.688Z,10.00
2018-03-27T16:08:24.315Z,9.90
2018-03-27T16:10:52.094Z,9.80
2018-03-27T16:13:19.711Z,9.70
2018-03-27T16:15:47.307Z,9.60
2018-03-27T16:18:14.888Z,9.50
2018-03-27T16:20:42.486Z,9.40
2018-03-27T16:23:10.795Z,9.30
2018-03-27T16:25:38.381Z,9.30
2018-03-27T16:28:05.946Z,9.20
2018-03-27T16:30:33.537Z,9.20
2018-03-27T16:33:02.078Z,9.10
2018-03-27T16:35:29.902Z,9.10
2018-03-27T16:37:57.430Z,9.00
2018-03-27T16:40:24.974Z,9.00
2018-03-27T16:42:52.575Z,9.00
2018-03-27T16:45:20.924Z,8.90
2018-03-27T16:47:48.493Z,8.80
2018-03-27T16:50:16.157Z,8.80
2018-03-27T16:52:43.741Z,8.70
2018-03-27T16:55:11.337Z,8.70
2018-03-27T16:57:38.963Z,8.70
2018-03-27T17:00:07.282Z,8.50
2018-03-27T17:02:34.889Z,8.50
2018-03-27T17:05:02.410Z,8.50
2018-03-27T17:07:29.972Z,8.40
2018-03-27T17:09:57.534Z,8.30
2018-03-27T17:12:25.244Z,8.30
2018-03-27T17:14:52.867Z,8.20
2018-03-27T17:17:20.448Z,8.20
2018-03-27T17:19:48.062Z,8.20
2018-03-27T17:22:15.830Z,8.10
2018-03-27T17:24:43.381Z,8.10
2018-03-27T17:27:11.275Z,8.00
2018-03-27T17:29:38.817Z,8.00
2018-03-27T17:32:06.371Z,7.90
2018-03-27T17:34:33.994Z,7.90
2018-03-27T17:37:01.540Z,7.80
2018-03-27T17:39:29.130Z,7.80
2018-03-27T17:41:56.721Z,7.80
2018-03-27T17:44:24.280Z,7.70
2018-03-27T17:46:51.843Z,7.70
2018-03-27T17:49:19.484Z,7.70
2018-03-27T17:51:47.030Z,7.70
2018-03-27T17:54:14.609Z,7.70
2018-03-27T17:56:42.153Z,7.60
2018-03-27T17:59:09.736Z,7.50
2018-03-27T18:01:37.287Z,7.50
2018-03-27T18:04:04.846Z,7.50
2018-03-27T18:06:32.414Z,7.40
2018-03-27T18:08:59.987Z,7.30
2018-03-27T18:11:27.540Z,7.20
2018-03-27T18:13:55.141Z,7.10
2018-03-27T18:16:22.697Z,7.00
2018-03-27T18:18:50.290Z,7.00
2018-03-27T18:21:17.985Z,7.00
2018-03-27T18:23:45.630Z,6.90
2018-03-27T18:26:13.268Z,7.00
2018-03-27T18:28:41.827Z,7.00
2018-03-27T18:31:09.500Z,7.00
2018-03-27T18:33:37.850Z,7.00
2018-03-27T18:36:05.607Z,7.00
2018-03-27T18:38:33.141Z,7.10
2018-03-27T18:41:00.756Z,7.10
2018-03-27T18:43:29.086Z,7.10
2018-03-27T18:45:56.906Z,7.10
2018-03-27T18:48:25.470Z,7.20
2018-03-27T18:50:53.147Z,7.20
2018-03-27T18:53:20.701Z,7.20
2018-03-27T18:55:49.042Z,7.20
2018-03-27T18:58:16.636Z,7.20
2018-03-27T19:00:44.224Z,7.20
2018-03-27T19:03:11.814Z,7.20
2018-03-27T19:05:39.383Z,7.20
2018-03-27T19:08:06.937Z,7.30
2018-03-27T19:10:34.544Z,7.20
2018-03-27T19:13:02.874Z,7.30
2018-03-27T19:15:30.464Z,7.30
2018-03-27T19:17:58.066Z,7.30
2018-03-27T19:20:25.663Z,7.20
2018-03-27T19:22:53.214Z,7.20
2018-03-27T19:25:20.764Z,7.20
2018-03-27T19:27:48.340Z,7.20
2018-03-27T19:30:15.882Z,7.10
2018-03-27T19:32:43.477Z,7.10
2018-03-27T19:35:11.036Z,7.10
2018-03-27T19:37:38.619Z,7.00
2018-03-27T19:40:06.924Z,6.90
2018-03-27T19:42:34.554Z,6.90
2018-03-27T19:45:02.925Z,6.90
2018-03-27T19:47:30.537Z,6.90
2018-03-27T19:49:58.105Z,6.80
2018-03-27T19:52:25.945Z,6.80
2018-03-27T19:54:53.543Z,6.80
2018-03-27T19:57:21.140Z,6.80
2018-03-27T19:59:49.449Z,6.80
2018-03-27T20:02:17.102Z,6.80
2018-03-27T20:04:44.679Z,6.80
2018-03-27T20:07:12.443Z,6.90
2018-03-27T20:09:39.990Z,6.90
2018-03-27T20:12:07.563Z,6.80
2018-03-27T20:14:35.139Z,6.80
2018-03-27T20:17:02.786Z,6.80
2018-03-27T20:19:30.334Z,6.80
2018-03-27T20:21:57.917Z,6.80
2018-03-27T20:24:25.492Z,6.90
2018-03-27T20:26:53.063Z,6.90
2018-03-27T20:29:20.655Z,6.90
2018-03-27T20:31:48.226Z,6.90
2018-03-27T20:34:15.952Z,6.90
2018-03-27T20:36:43.497Z,7.00
2018-03-27T20:39:11.060Z,7.00
2018-03-27T20:41:38.645Z,6.90
2018-03-27T20:44:06.998Z,6.90
2018-03-27T20:46:34.596Z,6.90
2018-03-27T20:49:03.032Z,6.90
2018-03-27T20:51:30.514Z,6.90
2018-03-27T20:53:58.080Z,6.90
2018-03-27T20:56:25.619Z,6.90
2018-03-27T20:58:53.198Z,6.80
2018-03-27T21:01:20.733Z,6.80
2018-03-27T21:03:48.286Z,6.80
2018-03-27T21:06:15.975Z,6.80
2018-03-27T21:08:43.516Z,6.80
2018-03-27T21:11:11.085Z,6.80
2018-03-27T21:13:38.634Z,6.80
2018-03-27T21:16:06.321Z,6.80
2018-03-27T21:18:34.643Z,6.80
2018-03-27T21:21:02.310Z,6.80
2018-03-27T21:23:29.950Z,6.80
2018-03-27T21:25:57.566Z,6.70
2018-03-27T21:28:25.122Z,6.80
2018-03-27T21:30:52.690Z,6.70
2018-03-27T21:33:20.242Z,6.80
2018-03-27T21:35:47.862Z,6.70
2018-03-27T21:38:15.411Z,6.70
2018-03-27T21:40:43.127Z,6.70
2018-03-27T21:43:10.668Z,6.70
2018-03-27T21:45:38.407Z,6.70
2018-03-27T21:48:05.942Z,6.60
2018-03-27T21:50:33.511Z,6.60
2018-03-27T21:53:01.055Z,6.60
2018-03-27T21:55:29.422Z,6.60
2018-03-27T21:57:57.330Z,6.60
2018-03-27T22:00:24.870Z,6.60
2018-03-27T22:02:52.685Z,6.60
2018-03-27T22:05:20.233Z,6.60
2018-03-27T22:07:47.802Z,6.60
2018-03-27T22:10:15.376Z,6.50
2018-03-27T22:12:42.954Z,6.50
2018-03-27T22:15:11.262Z,6.50
2018-03-27T22:17:38.906Z,6.50
2018-03-27T22:20:07.205Z,6.50
2018-03-27T22:22:34.765Z,6.50
2018-03-27T22:25:02.314Z,6.50
2018-03-27T22:27:29.916Z,6.50
2018-03-27T22:29:57.472Z,6.50
2018-03-27T22:32:25.035Z,6.50
2018-03-27T22:34:52.732Z,6.40
2018-03-27T22:37:21.351Z,6.50
2018-03-27T22:39:48.895Z,6.40
2018-03-27T22:42:16.462Z,6.50
2018-03-27T22:44:44.131Z,6.50
2018-03-27T22:47:11.698Z,6.50
2018-03-27T22:49:39.232Z,6.50
2018-03-27T22:52:06.769Z,6.50
2018-03-27T22:54:35.098Z,6.50
2018-03-27T22:57:02.637Z,6.50
2018-03-27T22:59:30.226Z,6.50
2018-03-27T23:01:57.773Z,6.50
2018-03-27T23:04:25.443Z,6.50
2018-03-27T23:06:53.166Z,6.50
2018-03-27T23:09:21.513Z,6.50
2018-03-27T23:11:49.046Z,6.50
2018-03-27T23:14:16.602Z,6.50
2018-03-27T23:16:44.161Z,6.40
2018-03-27T23:19:11.720Z,6.50
2018-03-27T23:21:39.253Z,6.50
2018-03-27T23:24:07.000Z,6.50
2018-03-27T23:26:35.315Z,6.50
2018-03-27T23:29:03.070Z,6.50
2018-03-27T23:31:30.628Z,6.50
2018-03-27T23:33:58.417Z,6.50
2018-03-27T23:36:25.954Z,6.50
2018-03-27T23:38:53.550Z,6.50
2018-03-27T23:41:21.305Z,6.50
2018-03-27T23:43:49.154Z,6.50
2018-03-27T23:46:16.727Z,6.50
2018-03-27T23:48:44.291Z,6.50
2018-03-27T23:51:11.994Z,6.50
2018-03-27T23:53:39.554Z,6.50
2018-03-27T23:56:07.910Z,6.40
2018-03-27T23:58:35.462Z,6.40
